Accueil
METAR-TAF:

METAR-TAF

Aéroports :

Dakar, Sénégal

Aéroport international Léopold-Sédar-Senghor

latitude: 14-44N, longitude: 017-30W, altitude: 27 m

Observation

Le bulletin a été fait il y a 1 heure et 2 minutes, à 03:00 UTC
Vent 4 kt de ouest/sud-ouest
Température 27°C
Humidité 94%
Pression 1011 hPa
Visibilité 10 km ou plus
pas de nuages en-dessous de 1500 mètres et pas de cumulonimbus.

METAR: GOOY 240300Z 24004KT CAVOK 27/26 Q1011 NOSIG

Heure: 04:02 (04:02 UTC)

Prévision

Le bulletin a été fait il y a 4 heures et 32 minutes, à 23:30 UTC
Prévision valable du 24 à 00 UTC au 25 à 06 UTC
Vent 7 kt de nord-ouest
Visibilité 10 km ou plus
pas de nuages en-dessous de 1500 mètres et pas de cumulonimbus.

TAF: GOOY 232330Z 2400/2506 32007KT CAVOK

Observations et prévisions météorologiques de plus de 4000 aéroports (messages METAR et TAF).

Les stations disponibles sont représentées par des disques jaunes et rouges sur la carte.

Passer la souris dessus pour voir le nom de la station.

Cliquer dessus pour voir les observations et prévisions météorologiques.

Pour changer de carte: cliquez sur les boutons verts avec une croix noire pour zoomer, sur le bouton vert avec un tiret pour effectuer un zoom arrière, ou sur les flèches vertes pour les cartes adjacentes.


METAR-TAF: